Time;durP1;ratioP1;P1;durP2;ratioP2;P2;SDS_P1;SDS_P2;PMS_P1;PMS_P2;Temp;Humidity;BMP_temperature;BMP_pressure;BME280_temperature;BME280_humidity;BME280_pressure;Samples;Min_cycle;Max_cycle;Signal;HPM_P1;HPM_P2
2023/12/17 00:01:17;;;;;;;13.00;12.10;;;;;;;-0.12;94.72;94638.47;5058901;28;20252;-73
2023/12/17 00:03:43;;;;;;;12.10;11.40;;;;;;;-0.18;94.98;94636.56;5066565;28;20252;-73
2023/12/17 00:06:08;;;;;;;13.53;12.53;;;;;;;-0.16;95.55;94639.78;5058658;28;20232;-73
2023/12/17 00:08:34;;;;;;;12.70;11.90;;;;;;;-0.04;95.30;94641.03;5044795;28;20218;-73
2023/12/17 00:10:59;;;;;;;12.23;11.33;;;;;;;-0.25;94.98;94615.91;5040520;28;20189;-73
2023/12/17 00:13:24;;;;;;;14.10;13.10;;;;;;;-0.07;94.86;94641.38;5063548;28;20245;-73
2023/12/17 00:15:50;;;;;;;13.87;12.80;;;;;;;-0.19;95.16;94643.47;5071650;28;20212;-73
2023/12/17 00:18:16;;;;;;;15.43;14.13;;;;;;;-0.07;95.02;94639.59;5071579;28;20217;-73
2023/12/17 00:20:42;;;;;;;12.73;11.73;;;;;;;-0.13;95.06;94654.84;5072683;28;20229;-74
2023/12/17 00:23:07;;;;;;;14.97;13.67;;;;;;;-0.09;95.23;94663.81;5071502;28;20228;-74
2023/12/17 00:25:32;;;;;;;14.37;13.07;;;;;;;-0.24;95.01;94645.75;5071691;28;20185;-75
2023/12/17 00:27:58;;;;;;;14.37;13.27;;;;;;;-0.14;94.92;94660.97;5075004;28;20316;-73
2023/12/17 00:30:23;;;;;;;15.50;14.20;;;;;;;-0.06;94.28;94666.06;5074012;28;20190;-74
2023/12/17 00:32:49;;;;;;;14.30;13.20;;;;;;;-0.36;95.19;94661.63;5069129;28;20722;-73
2023/12/17 00:35:15;;;;;;;15.80;14.50;;;;;;;-0.19;94.81;94670.91;5070108;28;20200;-73
2023/12/17 00:37:40;;;;;;;14.80;13.70;;;;;;;-0.28;94.47;94657.28;5060457;28;20225;-74
2023/12/17 00:40:06;;;;;;;14.87;13.67;;;;;;;-0.22;94.45;94679.72;5045323;28;20215;-73
2023/12/17 00:42:32;;;;;;;14.37;13.20;;;;;;;-0.18;94.39;94682.78;5049938;28;20369;-73
2023/12/17 00:44:57;;;;;;;16.00;14.53;;;;;;;-0.22;94.10;94671.25;5043406;28;20273;-74
2023/12/17 00:47:23;;;;;;;15.37;14.07;;;;;;;-0.31;93.90;94667.06;5060801;28;20259;-74
2023/12/17 00:49:48;;;;;;;15.17;13.97;;;;;;;-0.29;93.91;94677.97;5057235;28;20201;-73
2023/12/17 00:52:13;;;;;;;15.73;14.47;;;;;;;-0.40;94.18;94675.75;5065293;28;20273;-73
2023/12/17 00:54:39;;;;;;;16.67;15.27;;;;;;;-0.35;94.79;94673.50;5068618;28;20201;-74
2023/12/17 00:57:04;;;;;;;15.87;14.43;;;;;;;-0.38;93.76;94655.84;5068147;28;20802;-73
2023/12/17 00:59:29;;;;;;;14.77;13.50;;;;;;;-0.45;93.54;94660.84;5066674;28;20186;-73
2023/12/17 01:01:55;;;;;;;13.47;12.47;;;;;;;-0.57;94.29;94654.44;5068638;28;20217;-73
2023/12/17 01:04:20;;;;;;;13.07;11.97;;;;;;;-0.43;93.27;94660.66;5071142;28;20181;-74
2023/12/17 01:06:45;;;;;;;13.53;12.53;;;;;;;-0.50;93.94;94665.63;5058394;28;20217;-74
2023/12/17 01:09:11;;;;;;;14.33;13.33;;;;;;;-0.61;94.47;94670.31;5071503;28;20185;-74
2023/12/17 01:11:37;;;;;;;12.77;11.93;;;;;;;-0.71;94.16;94652.50;5071836;28;20225;-73
2023/12/17 01:14:02;;;;;;;13.30;12.37;;;;;;;-0.70;94.42;94658.44;5062716;28;20249;-74
2023/12/17 01:16:29;;;;;;;14.00;13.10;;;;;;;-0.78;94.04;94661.00;5061598;28;20213;-73
2023/12/17 01:18:54;;;;;;;13.53;12.60;;;;;;;-0.78;93.77;94661.00;5047343;28;20179;-73
2023/12/17 01:21:19;;;;;;;12.30;11.50;;;;;;;-0.77;93.75;94665.16;5043942;28;20221;-73
2023/12/17 01:23:45;;;;;;;13.53;12.73;;;;;;;-0.79;93.65;94661.94;5051555;28;20198;-74
2023/12/17 01:26:23;;;;;;;12.07;11.33;;;;;;;-0.82;93.74;94663.09;5046624;28;20210;-73
2023/12/17 01:28:55;;;;;;;12.07;11.43;;;;;;;-0.70;93.29;94653.31;5051169;28;20209;-74
2023/12/17 01:31:20;;;;;;;11.80;11.10;;;;;;;-0.84;93.78;94677.03;5051899;28;20208;-73
2023/12/17 01:33:45;;;;;;;11.93;11.33;;;;;;;-0.91;94.31;94678.63;5045832;28;20194;-74
2023/12/17 01:36:11;;;;;;;12.40;11.70;;;;;;;-0.98;94.22;94683.56;5051721;28;20190;-74
2023/12/17 01:38:36;;;;;;;11.73;11.13;;;;;;;-0.96;94.30;94681.66;5070688;28;20213;-74
2023/12/17 01:41:02;;;;;;;12.60;11.90;;;;;;;-0.81;93.58;94687.75;5062776;28;20253;-73
2023/12/17 01:43:28;;;;;;;11.80;11.13;;;;;;;-0.96;94.12;94688.53;5053132;28;20226;-74
2023/12/17 01:45:54;;;;;;;11.73;11.13;;;;;;;-0.85;93.79;94689.03;5050442;28;20228;-74
2023/12/17 01:48:24;;;;;;;12.53;11.73;;;;;;;-0.83;93.70;94689.69;5060325;28;20221;-73
2023/12/17 01:50:49;;;;;;;13.43;12.37;;;;;;;-0.92;94.08;94695.75;5065375;28;20204;-74
2023/12/17 01:53:16;;;;;;;11.57;10.87;;;;;;;-0.88;94.34;94688.56;5054039;28;20234;-74
2023/12/17 01:55:43;;;;;;;12.53;11.73;;;;;;;-1.09;94.18;94678.75;5046461;28;20245;-74
2023/12/17 01:58:09;;;;;;;11.87;11.07;;;;;;;-0.97;93.72;94689.50;5039370;28;20233;-72
2023/12/17 02:00:36;;;;;;;12.13;11.37;;;;;;;-1.02;93.84;94691.72;5037013;28;21147;-72
2023/12/17 02:03:03;;;;;;;12.53;11.83;;;;;;;-0.88;93.55;94686.78;5049273;28;20309;-71
2023/12/17 02:05:31;;;;;;;11.87;11.27;;;;;;;-0.99;93.46;94681.16;5047438;28;20193;-71
2023/12/17 02:07:57;;;;;;;11.57;10.90;;;;;;;-0.98;93.78;94675.88;5063188;28;20221;-71
2023/12/17 02:10:22;;;;;;;12.20;11.60;;;;;;;-1.31;93.96;94678.53;5069475;28;20196;-71
2023/12/17 02:12:47;;;;;;;12.63;11.93;;;;;;;-1.15;94.11;94681.94;5057831;28;20229;-71
2023/12/17 02:15:13;;;;;;;11.93;11.23;;;;;;;-1.16;94.84;94682.09;5046126;28;20182;-71
2023/12/17 02:17:38;;;;;;;11.77;11.07;;;;;;;-1.00;93.85;94666.75;5061277;28;20310;-71
2023/12/17 02:20:04;;;;;;;12.40;11.60;;;;;;;-0.97;93.37;94672.38;5070588;28;20236;-71
2023/12/17 02:22:29;;;;;;;13.27;12.27;;;;;;;-1.02;93.57;94668.66;5069318;28;20225;-71
2023/12/17 02:24:55;;;;;;;12.97;12.00;;;;;;;-0.98;93.92;94675.09;5066238;28;20207;-71
2023/12/17 02:27:22;;;;;;;13.33;12.23;;;;;;;-0.93;93.34;94670.28;5070173;28;20510;-71
2023/12/17 02:29:48;;;;;;;13.37;12.17;;;;;;;-1.12;93.44;94665.47;5069607;28;20202;-72
2023/12/17 02:32:14;;;;;;;12.63;11.70;;;;;;;-0.92;93.23;94677.03;5070201;28;20225;-71
2023/12/17 02:34:40;;;;;;;16.00;14.03;;;;;;;-1.08;93.70;94677.78;5070189;28;20189;-71
2023/12/17 02:37:05;;;;;;;15.73;14.30;;;;;;;-1.06;93.21;94655.34;5061937;28;20225;-71
2023/12/17 02:39:30;;;;;;;14.93;13.53;;;;;;;-0.88;93.63;94661.16;5050145;28;20210;-71
2023/12/17 02:41:57;;;;;;;17.90;16.00;;;;;;;-0.97;93.30;94666.44;5047780;28;20281;-71
2023/12/17 02:44:23;;;;;;;19.67;15.47;;;;;;;-0.88;93.41;94671.41;5046431;28;20194;-71
2023/12/17 02:46:48;;;;;;;18.80;14.63;;;;;;;-1.06;93.39;94675.06;5047934;28;20229;-71
2023/12/17 02:49:13;;;;;;;18.77;15.03;;;;;;;-0.90;94.01;94682.81;5048667;28;20249;-71
2023/12/17 02:51:39;;;;;;;16.50;14.80;;;;;;;-1.00;93.59;94682.94;5045099;28;20234;-71
2023/12/17 02:54:04;;;;;;;21.90;16.23;;;;;;;-0.93;93.34;94690.78;5048559;28;20830;-73
2023/12/17 02:56:29;;;;;;;27.43;18.40;;;;;;;-1.20;93.08;94665.44;5046799;28;20218;-73
2023/12/17 02:58:55;;;;;;;21.30;17.17;;;;;;;-1.07;93.98;94681.94;5048215;28;20186;-72
2023/12/17 03:01:20;;;;;;;17.63;14.97;;;;;;;-1.25;93.87;94665.09;5047401;28;20225;-72
2023/12/17 03:03:45;;;;;;;17.00;15.27;;;;;;;-1.18;94.02;94666.88;5048699;28;20193;-72
2023/12/17 03:06:11;;;;;;;17.83;15.17;;;;;;;-1.06;93.85;94686.09;5052872;28;20214;-73
2023/12/17 03:08:38;;;;;;;19.93;15.10;;;;;;;-0.99;93.35;94663.22;5043135;28;20221;-72
2023/12/17 03:11:03;;;;;;;16.40;14.77;;;;;;;-1.01;93.16;94672.84;5048463;28;20197;-72
2023/12/17 03:13:30;;;;;;;14.37;13.17;;;;;;;-1.03;93.28;94662.75;5048034;28;20716;-73
2023/12/17 03:15:55;;;;;;;13.40;12.40;;;;;;;-1.00;92.89;94666.75;5048149;28;20178;-72
2023/12/17 03:18:20;;;;;;;12.27;11.47;;;;;;;-1.23;93.24;94663.97;5040789;28;20233;-73
2023/12/17 03:20:46;;;;;;;13.07;12.17;;;;;;;-1.07;92.87;94683.69;5039059;28;20225;-72
2023/12/17 03:23:11;;;;;;;12.17;11.37;;;;;;;-1.24;93.57;94670.06;5048470;28;20246;-73
2023/12/17 03:25:36;;;;;;;12.70;11.90;;;;;;;-1.09;93.30;94685.66;5045955;28;20186;-72
2023/12/17 03:28:02;;;;;;;11.77;11.07;;;;;;;-1.35;93.42;94662.69;5048896;28;20226;-72
2023/12/17 03:30:27;;;;;;;12.30;11.50;;;;;;;-1.70;92.59;94575.84;5049647;28;20205;-73
2023/12/17 03:32:53;;;;;;;13.37;12.40;;;;;;;-1.41;93.89;94662.50;5044847;28;20214;-76
2023/12/17 03:35:18;;;;;;;11.30;10.60;;;;;;;-1.33;94.05;94663.31;5046548;28;20202;-75
2023/12/17 03:37:43;;;;;;;12.10;11.30;;;;;;;-1.26;94.00;94677.09;5071929;28;20240;-74
2023/12/17 03:40:09;;;;;;;13.27;12.47;;;;;;;-1.40;94.09;94675.13;5060235;28;20198;-73
2023/12/17 03:42:34;;;;;;;11.50;10.80;;;;;;;-1.42;94.01;94666.84;5057557;28;20225;-74
2023/12/17 03:45:00;;;;;;;11.67;11.07;;;;;;;-1.33;93.56;94690.69;5049340;28;20189;-73
2023/12/17 03:47:25;;;;;;;12.60;11.80;;;;;;;-1.51;94.08;94667.78;5050036;28;20245;-73
2023/12/17 03:49:50;;;;;;;12.60;11.83;;;;;;;-1.37;93.92;94695.31;5056725;28;20205;-73
2023/12/17 03:52:16;;;;;;;11.67;10.87;;;;;;;-1.26;93.75;94694.25;5052663;28;20228;-73
2023/12/17 03:54:41;;;;;;;12.17;11.37;;;;;;;-1.21;93.57;94694.56;5066430;28;20197;-71
2023/12/17 03:57:07;;;;;;;10.73;10.13;;;;;;;-1.54;94.00;94655.25;5061297;28;20249;-73
2023/12/17 03:59:32;;;;;;;13.37;12.10;;;;;;;-1.47;94.05;94683.59;5071068;28;20271;-73
2023/12/17 04:02:01;;;;;;;10.50;9.90;;;;;;;-1.24;94.09;94697.44;5057477;28;20326;-74
2023/12/17 04:04:27;;;;;;;10.73;10.13;;;;;;;-1.20;93.62;94699.56;5065792;28;20185;-73
2023/12/17 04:06:52;;;;;;;11.93;11.27;;;;;;;-1.16;93.74;94711.09;5064813;28;20255;-73
2023/12/17 04:09:19;;;;;;;11.50;10.90;;;;;;;-1.13;93.57;94712.53;5064111;28;20613;-74
2023/12/17 04:11:44;;;;;;;11.60;10.90;;;;;;;-1.20;93.76;94711.56;5067240;28;20236;-72
2023/12/17 04:14:09;;;;;;;11.60;10.97;;;;;;;-1.23;94.03;94714.44;5069892;28;20241;-72
2023/12/17 04:16:35;;;;;;;11.40;10.53;;;;;;;-1.21;93.54;94713.31;5059837;28;20211;-73
2023/12/17 04:19:02;;;;;;;11.57;10.97;;;;;;;-1.31;93.73;94709.28;5060058;28;20170;-73
2023/12/17 04:21:28;;;;;;;11.33;10.63;;;;;;;-1.43;93.72;94705.41;5063953;28;20212;-73
2023/12/17 04:23:54;;;;;;;10.73;10.17;;;;;;;-1.38;93.25;94713.41;5046359;28;20206;-73
2023/12/17 04:26:19;;;;;;;10.37;9.83;;;;;;;-1.39;93.33;94692.13;5049623;28;20630;-74
2023/12/17 04:28:45;;;;;;;11.03;10.43;;;;;;;-1.38;93.08;94715.97;5064200;28;20232;-73
2023/12/17 04:31:10;;;;;;;10.90;10.20;;;;;;;-1.50;93.77;94709.53;5060986;28;20186;-73
2023/12/17 04:33:35;;;;;;;10.80;10.20;;;;;;;-1.47;93.55;94720.28;5075454;28;20246;-72
2023/12/17 04:36:01;;;;;;;11.77;11.17;;;;;;;-1.63;92.85;94689.47;5045486;28;20195;-73
2023/12/17 04:38:26;;;;;;;12.60;12.00;;;;;;;-1.52;93.22;94724.22;5060692;28;20229;-72
2023/12/17 04:40:51;;;;;;;10.90;10.37;;;;;;;-1.53;94.07;94715.78;5049047;28;20248;-74
2023/12/17 04:43:17;;;;;;;11.93;11.33;;;;;;;-1.50;93.93;94717.22;5048000;28;20229;-72
2023/12/17 04:45:42;;;;;;;10.67;10.07;;;;;;;-1.46;94.06;94711.63;5051866;28;20209;-72
2023/12/17 04:48:07;;;;;;;11.50;10.80;;;;;;;-1.42;93.99;94719.81;5051326;28;20218;-71
2023/12/17 04:50:33;;;;;;;12.17;11.43;;;;;;;-1.57;93.96;94711.91;5045428;28;20203;-71
2023/12/17 04:52:58;;;;;;;11.20;10.37;;;;;;;-1.52;94.19;94724.22;5049377;28;20226;-72
2023/12/17 04:55:23;;;;;;;12.43;11.63;;;;;;;-1.55;94.49;94727.91;5051534;28;20198;-72
2023/12/17 04:57:49;;;;;;;11.77;11.00;;;;;;;-1.59;93.12;94741.19;5049757;28;20225;-72
2023/12/17 05:00:15;;;;;;;11.87;11.17;;;;;;;-1.40;93.76;94731.50;5051732;28;20213;-72
2023/12/17 05:02:40;;;;;;;12.33;11.50;;;;;;;-1.37;93.26;94731.19;5050012;28;20224;-72
2023/12/17 05:05:06;;;;;;;12.90;11.90;;;;;;;-1.20;92.76;94737.19;5051381;28;20245;-72
2023/12/17 05:07:31;;;;;;;10.77;10.07;;;;;;;-1.23;93.19;94738.28;5055612;28;20225;-72
2023/12/17 05:09:57;;;;;;;12.30;11.50;;;;;;;-1.37;93.38;94731.19;5072598;28;20203;-72
2023/12/17 05:12:22;;;;;;;12.83;12.00;;;;;;;-1.37;93.78;94730.41;5057290;28;20233;-71
2023/12/17 05:14:48;;;;;;;12.00;11.30;;;;;;;-1.30;93.83;94746.75;5051880;28;20215;-72
2023/12/17 05:17:13;;;;;;;12.97;12.27;;;;;;;-1.41;94.20;94745.25;5046804;28;20224;-72
2023/12/17 05:19:38;;;;;;;13.20;12.40;;;;;;;-1.32;94.63;94743.56;5050799;28;20214;-72
2023/12/17 05:22:04;;;;;;;11.07;10.37;;;;;;;-1.34;94.34;94746.28;5051710;28;20213;-72
2023/12/17 05:24:29;;;;;;;12.43;11.50;;;;;;;-1.30;94.62;94762.13;5047048;28;20231;-72
2023/12/17 05:26:54;;;;;;;13.30;12.17;;;;;;;-1.27;94.08;94756.69;5045556;28;20229;-72
2023/12/17 05:29:20;;;;;;;13.53;12.43;;;;;;;-1.37;94.02;94756.00;5059506;28;20197;-72
2023/12/17 05:31:45;;;;;;;14.13;12.90;;;;;;;-1.28;94.95;94765.34;5063094;28;20226;-71
2023/12/17 05:34:10;;;;;;;15.00;13.10;;;;;;;-1.31;95.06;94763.91;5050350;28;20194;-71
2023/12/17 05:36:36;;;;;;;13.50;12.57;;;;;;;-1.24;94.74;94766.63;5045911;28;20233;-72
2023/12/17 05:39:01;;;;;;;14.70;13.53;;;;;;;-1.26;93.88;94776.25;5041478;28;20213;-71
2023/12/17 05:41:27;;;;;;;15.73;14.00;;;;;;;-1.40;94.87;94776.81;5049060;28;20217;-72
2023/12/17 05:43:52;;;;;;;14.83;13.60;;;;;;;-1.40;93.96;94769.91;5056895;28;20202;-71
2023/12/17 05:46:17;;;;;;;14.43;12.97;;;;;;;-1.26;94.52;94781.38;5048366;28;20186;-71
2023/12/17 05:48:43;;;;;;;14.87;13.43;;;;;;;-1.39;94.35;94768.97;5047489;28;20194;-72
2023/12/17 05:51:08;;;;;;;15.30;13.70;;;;;;;-1.20;94.09;94778.19;5046158;28;20191;-72
2023/12/17 05:53:34;;;;;;;13.33;12.10;;;;;;;-1.25;93.69;94777.84;5045741;28;20249;-71
2023/12/17 05:56:00;;;;;;;15.90;14.20;;;;;;;-1.25;93.46;94770.16;5051108;28;20185;-76
2023/12/17 05:58:25;;;;;;;16.47;14.90;;;;;;;-1.34;94.32;94764.19;5064052;28;20256;-73
2023/12/17 06:00:50;;;;;;;14.53;13.10;;;;;;;-1.16;93.63;94774.34;5065217;28;20213;-71
2023/12/17 06:03:16;;;;;;;18.93;14.03;;;;;;;-1.06;93.20;94769.91;5065642;28;20234;-74
2023/12/17 06:05:41;;;;;;;12.70;11.77;;;;;;;-1.48;95.19;94775.03;5069056;28;20197;-73
2023/12/17 06:08:06;;;;;;;12.47;11.37;;;;;;;-1.11;95.21;94777.25;5064952;28;20251;-73
2023/12/17 06:10:32;;;;;;;14.57;13.37;;;;;;;-1.12;94.04;94773.09;5068455;28;20188;-73
2023/12/17 06:12:57;;;;;;;13.77;12.60;;;;;;;-1.36;94.02;94742.25;5066826;28;20229;-72
2023/12/17 06:15:23;;;;;;;13.77;12.60;;;;;;;-1.09;93.94;94783.81;5066096;28;20247;-72
2023/12/17 06:17:48;;;;;;;13.63;12.43;;;;;;;-1.28;94.15;94753.34;5068459;28;20229;-73
2023/12/17 06:20:13;;;;;;;14.27;13.07;;;;;;;-1.06;93.38;94780.16;5069225;28;20229;-72
2023/12/17 06:22:40;;;;;;;15.73;14.23;;;;;;;-1.23;93.89;94774.16;5066520;28;20221;-73
2023/12/17 06:25:05;;;;;;;13.07;12.13;;;;;;;-1.07;93.26;94770.84;5063968;28;20192;-72
2023/12/17 06:27:31;;;;;;;12.70;11.73;;;;;;;-1.25;94.69;94765.03;5050945;28;20226;-72
2023/12/17 06:29:57;;;;;;;15.00;13.80;;;;;;;-1.05;94.03;94771.50;5042365;28;20196;-72
2023/12/17 06:32:22;;;;;;;13.57;12.63;;;;;;;-1.16;95.38;94774.34;5044509;28;20220;-73
2023/12/17 06:34:47;;;;;;;15.73;14.23;;;;;;;-0.96;94.41;94781.63;5044266;28;20301;-72
2023/12/17 06:37:13;;;;;;;16.83;13.47;;;;;;;-0.93;94.58;94780.50;5042378;28;20210;-72
2023/12/17 06:39:42;;;;;;;15.30;13.80;;;;;;;-0.86;93.81;94781.50;5062247;28;20194;-73
2023/12/17 06:42:11;;;;;;;14.77;13.37;;;;;;;-0.71;94.40;94787.63;5066291;28;20264;-72
2023/12/17 06:44:37;;;;;;;15.30;13.30;;;;;;;-0.81;94.10;94792.09;5061157;28;20216;-73
2023/12/17 06:47:03;;;;;;;15.00;13.73;;;;;;;-0.76;93.37;94794.97;5062320;28;20257;-73
2023/12/17 06:49:28;;;;;;;13.30;12.27;;;;;;;-0.86;93.80;94802.00;5045549;28;20174;-73
2023/12/17 06:51:53;;;;;;;12.90;12.00;;;;;;;-0.66;92.97;94804.16;5044869;28;20234;-73
2023/12/17 06:54:19;;;;;;;15.10;13.80;;;;;;;-0.80;93.07;94799.63;5044678;28;20224;-73
2023/12/17 06:56:44;;;;;;;17.70;15.97;;;;;;;-0.84;94.05;94810.34;5048803;28;20225;-72
2023/12/17 06:59:09;;;;;;;14.60;13.50;;;;;;;-0.84;93.87;94805.22;5047465;28;20200;-73
2023/12/17 07:01:35;;;;;;;14.83;13.53;;;;;;;-0.92;94.88;94800.84;5056019;28;20217;-73
2023/12/17 07:04:02;;;;;;;15.30;14.03;;;;;;;-0.87;95.13;94811.44;5056448;28;20198;-73
2023/12/17 07:06:27;;;;;;;15.83;14.50;;;;;;;-0.42;95.69;94818.78;5060444;28;20189;-73
2023/12/17 07:08:53;;;;;;;17.10;15.37;;;;;;;-0.71;95.26;94820.94;5047545;28;20198;-75
2023/12/17 07:11:18;;;;;;;18.53;16.93;;;;;;;-0.41;94.81;94830.66;5047797;28;20490;-76
2023/12/17 07:13:44;;;;;;;17.93;16.47;;;;;;;-0.37;94.82;94829.34;5043299;28;20186;-74
2023/12/17 07:16:21;;;;;;;15.30;14.10;;;;;;;-0.32;95.43;94833.06;5045830;28;20197;-75
2023/12/17 07:18:46;;;;;;;52.93;18.63;;;;;;;-0.17;95.57;94836.59;5035641;28;20206;-75
2023/12/17 07:21:12;;;;;;;18.80;16.93;;;;;;;-0.02;94.77;94835.00;5035580;28;20226;-76
2023/12/17 07:23:37;;;;;;;14.90;13.77;;;;;;;-0.48;95.71;94830.47;5059615;28;20320;-75
2023/12/17 07:26:03;;;;;;;15.53;14.37;;;;;;;-0.37;97.98;94814.78;5058714;28;20178;-77
2023/12/17 07:28:28;;;;;;;16.87;15.57;;;;;;;-0.55;97.31;94821.81;5046295;28;20660;-75
2023/12/17 07:30:54;;;;;;;16.77;15.23;;;;;;;-0.24;97.05;94819.44;5036492;28;20217;-74
2023/12/17 07:33:19;;;;;;;18.17;16.67;;;;;;;-0.35;97.25;94796.66;5039695;28;20289;-75
2023/12/17 07:35:44;;;;;;;16.53;15.03;;;;;;;-0.14;96.25;94797.78;5038351;28;20201;-81
2023/12/17 07:38:10;;;;;;;23.93;21.53;;;;;;;-0.14;96.74;94809.84;5045716;28;20261;-76
2023/12/17 07:40:35;;;;;;;17.00;15.40;;;;;;;-0.04;96.87;94802.75;5038806;28;20276;-78
2023/12/17 07:43:01;;;;;;;17.57;15.83;;;;;;;0.27;95.32;94808.84;5047887;28;20264;-78
2023/12/17 07:45:26;;;;;;;15.90;14.60;;;;;;;0.26;94.99;94801.31;5041043;28;20175;-78
2023/12/17 07:47:52;;;;;;;15.73;14.43;;;;;;;0.00;95.64;94804.06;5047973;28;20234;-76
2023/12/17 07:50:17;;;;;;;16.27;14.87;;;;;;;0.29;95.35;94829.22;5039535;28;20221;-77
2023/12/17 07:52:42;;;;;;;15.80;14.50;;;;;;;0.11;95.21;94834.53;5045438;28;20241;-77
2023/12/17 07:55:08;;;;;;;14.60;13.43;;;;;;;-0.07;95.82;94836.47;5037666;28;20913;-75
2023/12/17 07:57:34;;;;;;;14.00;13.00;;;;;;;-0.06;96.27;94835.50;5054566;28;20240;-79
2023/12/17 07:59:59;;;;;;;16.43;14.93;;;;;;;0.15;96.87;94835.81;5067826;28;20162;-76
2023/12/17 08:02:26;;;;;;;15.80;14.60;;;;;;;-0.07;96.31;94846.72;5060430;28;20330;-77
2023/12/17 08:04:51;;;;;;;15.30;14.00;;;;;;;0.02;96.44;94847.56;5067432;28;20235;-77
2023/12/17 08:07:17;;;;;;;16.43;15.03;;;;;;;0.27;96.26;94838.84;5067300;28;20221;-78
2023/12/17 08:09:43;;;;;;;16.43;14.97;;;;;;;0.18;94.98;94835.50;5066062;28;20190;-79
2023/12/17 08:12:09;;;;;;;15.03;13.50;;;;;;;0.27;95.35;94839.66;5060208;28;20234;-78
2023/12/17 08:14:35;;;;;;;16.50;15.03;;;;;;;0.55;93.94;94846.06;5044397;28;20197;-76
2023/12/17 08:17:00;;;;;;;16.13;14.63;;;;;;;0.21;94.67;94854.91;5050421;28;20284;-79
2023/12/17 08:19:26;;;;;;;13.63;12.43;;;;;;;0.19;94.10;94867.91;5066604;28;20213;-87
2023/12/17 08:21:51;;;;;;;15.00;13.77;;;;;;;0.13;94.77;94862.63;5070390;28;20226;-79
2023/12/17 08:24:17;;;;;;;15.93;14.53;;;;;;;0.09;95.60;94862.16;5047634;28;20182;-78
2023/12/17 08:26:42;;;;;;;16.33;15.20;;;;;;;0.13;94.62;94865.19;5048981;28;20267;-79
2023/12/17 08:29:07;;;;;;;15.23;13.80;;;;;;;0.41;93.38;94871.59;5050227;28;20182;-80
2023/12/17 08:31:33;;;;;;;14.73;13.63;;;;;;;0.30;95.41;94859.88;5051197;28;20202;-79
2023/12/17 08:33:59;;;;;;;14.97;13.77;;;;;;;0.49;93.80;94872.41;5047493;28;20187;-80
2023/12/17 08:36:27;;;;;;;15.03;14.03;;;;;;;0.53;95.40;94865.19;5046713;28;20193;-79
2023/12/17 08:38:53;;;;;;;14.67;13.47;;;;;;;0.50;94.28;94868.88;5048307;28;20198;-79
2023/12/17 08:41:18;;;;;;;14.97;13.90;;;;;;;0.69;93.36;94865.97;5050055;28;20207;-78
2023/12/17 08:43:45;;;;;;;15.00;13.47;;;;;;;0.66;92.75;94840.59;5061467;28;20205;-78
2023/12/17 08:46:11;;;;;;;13.87;12.90;;;;;;;1.16;90.33;94859.09;5066227;28;20266;-88
2023/12/17 08:48:36;;;;;;;14.53;13.43;;;;;;;0.99;90.95;94852.41;5049696;28;20232;-78
2023/12/17 08:51:03;;;;;;;15.00;13.87;;;;;;;1.20;90.06;94852.63;5048924;28;20202;-77
2023/12/17 08:53:29;;;;;;;15.73;14.67;;;;;;;0.89;90.80;94840.66;5048757;28;20237;-77
2023/12/17 08:55:54;;;;;;;16.17;14.93;;;;;;;1.41;92.58;94836.63;5044988;28;20186;-88
2023/12/17 08:58:20;;;;;;;15.07;13.87;;;;;;;1.10;90.51;94831.47;5067846;28;20213;-76
2023/12/17 09:00:45;;;;;;;15.17;14.07;;;;;;;0.86;91.27;94831.53;5067185;28;20239;-76
2023/12/17 09:03:10;;;;;;;15.50;14.30;;;;;;;0.93;90.88;94829.91;5071651;28;20225;-79
2023/12/17 09:05:36;;;;;;;15.10;14.00;;;;;;;1.06;91.34;94831.97;5064870;28;20185;-81
2023/12/17 09:08:02;;;;;;;14.80;13.60;;;;;;;1.27;90.67;94834.75;5068996;28;20236;-80
2023/12/17 09:10:27;;;;;;;15.33;14.07;;;;;;;1.82;88.12;94840.59;5070208;28;20254;-78
2023/12/17 09:12:54;;;;;;;15.37;14.10;;;;;;;2.09;88.03;94842.63;5067373;28;20229;-81
2023/12/17 09:15:20;;;;;;;14.20;13.00;;;;;;;1.80;88.03;94857.16;5064416;28;20223;-83
2023/12/17 09:17:45;;;;;;;16.53;14.93;;;;;;;1.39;89.29;94829.06;5068670;28;20241;-84
2023/12/17 09:20:12;;;;;;;13.00;12.00;;;;;;;1.61;88.93;94827.50;5066040;28;20240;-85
2023/12/17 09:22:37;;;;;;;15.00;13.80;;;;;;;1.60;88.09;94849.09;5071075;28;20225;-84
2023/12/17 09:25:02;;;;;;;15.63;14.40;;;;;;;1.58;89.41;94844.09;5066569;28;20830;-80
2023/12/17 09:27:28;;;;;;;16.87;15.27;;;;;;;1.53;89.42;94837.84;5063569;28;20275;-75
2023/12/17 09:29:53;;;;;;;16.33;14.73;;;;;;;1.45;89.06;94837.88;5065133;28;20197;-76
2023/12/17 09:32:19;;;;;;;17.00;15.40;;;;;;;1.31;90.83;94844.53;5069279;28;20228;-76
2023/12/17 09:34:44;;;;;;;17.40;15.80;;;;;;;1.36;91.22;94833.75;5066866;28;20198;-78
2023/12/17 09:37:09;;;;;;;16.33;15.13;;;;;;;2.01;90.35;94834.19;5063931;28;20229;-76
2023/12/17 09:39:34;;;;;;;16.87;15.40;;;;;;;2.17;88.19;94841.78;5070875;28;20257;-77
2023/12/17 09:42:00;;;;;;;17.27;15.87;;;;;;;1.64;89.66;94835.69;5065835;28;20248;-76
2023/12/17 09:44:27;;;;;;;16.10;14.63;;;;;;;1.60;89.57;94839.56;5065057;28;20186;-77
2023/12/17 09:46:52;;;;;;;16.13;14.70;;;;;;;1.34;90.46;94836.50;5068114;28;20235;-76
2023/12/17 09:49:17;;;;;;;16.63;14.93;;;;;;;1.34;92.05;94830.53;5067340;28;20257;-76
2023/12/17 09:51:47;;;;;;;15.47;14.17;;;;;;;1.67;89.94;94837.94;5070522;28;20221;-76
2023/12/17 09:54:12;;;;;;;16.83;15.43;;;;;;;1.58;89.97;94838.94;5071569;28;20212;-74
2023/12/17 09:56:38;;;;;;;16.13;14.80;;;;;;;1.85;90.29;94823.97;5068711;28;20288;-75
2023/12/17 09:59:03;;;;;;;16.77;15.53;;;;;;;1.75;90.44;94818.25;5068159;28;20196;-73
2023/12/17 10:01:29;;;;;;;14.73;13.50;;;;;;;1.92;88.15;94791.41;5067232;28;20205;-75
2023/12/17 10:03:56;;;;;;;16.80;15.40;;;;;;;1.60;89.14;94798.38;5068989;28;20257;-82
2023/12/17 10:06:21;;;;;;;17.37;15.90;;;;;;;2.08;89.93;94814.47;5061611;28;20190;-77
2023/12/17 10:08:47;;;;;;;15.87;14.43;;;;;;;1.56;89.19;94799.69;5069205;28;20218;-74
2023/12/17 10:11:15;;;;;;;16.17;14.50;;;;;;;2.00;89.44;94806.81;5070112;28;20186;-75
2023/12/17 10:13:40;;;;;;;17.30;15.73;;;;;;;1.97;90.18;94802.81;5068968;28;20217;-75
2023/12/17 10:16:06;;;;;;;14.87;13.67;;;;;;;2.35;88.77;94795.91;5067887;28;20242;-76
2023/12/17 10:18:32;;;;;;;16.40;14.80;;;;;;;2.37;86.91;94806.81;5050409;28;20319;-76
2023/12/17 10:20:57;;;;;;;16.97;15.60;;;;;;;2.44;87.11;94807.72;5043645;28;20239;-75
2023/12/17 10:23:23;;;;;;;16.27;14.90;;;;;;;2.30;89.16;94804.16;5046978;28;20222;-73
2023/12/17 10:25:58;;;;;;;16.00;14.63;;;;;;;2.78;87.13;94798.53;5047710;28;20229;-73
2023/12/17 10:28:24;;;;;;;17.43;15.83;;;;;;;2.94;85.38;94787.22;5048803;28;20264;-73
2023/12/17 10:30:51;;;;;;;17.73;16.13;;;;;;;2.37;85.37;94778.47;5048181;28;20183;-74
2023/12/17 10:33:26;;;;;;;16.47;14.83;;;;;;;2.90;85.12;94784.19;5046428;28;20233;-76
2023/12/17 10:35:52;;;;;;;17.07;15.63;;;;;;;2.48;84.25;94765.16;5043385;28;20192;-70
2023/12/17 10:38:19;;;;;;;17.43;15.80;;;;;;;2.74;85.16;94791.31;5048263;28;20296;-76
2023/12/17 10:40:46;;;;;;;16.20;14.70;;;;;;;2.65;84.76;94788.00;5038526;28;20313;-77
2023/12/17 10:43:12;;;;;;;16.20;14.60;;;;;;;2.58;85.77;94781.16;5046255;28;20236;-77
2023/12/17 10:45:39;;;;;;;17.37;15.70;;;;;;;2.35;87.50;94783.00;5041963;28;20183;-77
2023/12/17 10:48:05;;;;;;;18.97;16.13;;;;;;;2.23;87.64;94776.66;5059432;28;20228;-75
2023/12/17 10:50:34;;;;;;;17.67;16.07;;;;;;;2.05;90.50;94773.59;5067814;28;20195;-76
2023/12/17 10:52:59;;;;;;;16.27;14.73;;;;;;;2.27;88.29;94778.72;5054673;28;20218;-77
2023/12/17 10:55:25;;;;;;;17.50;15.90;;;;;;;2.37;87.82;94783.63;5048335;28;20205;-82
2023/12/17 10:57:58;;;;;;;17.17;15.67;;;;;;;2.17;90.46;94792.81;5040405;28;20225;-77
2023/12/17 11:00:27;;;;;;;16.30;14.67;;;;;;;2.34;88.50;94789.94;5038918;28;20214;-78
2023/12/17 11:02:58;;;;;;;17.73;16.20;;;;;;;2.40;87.54;94791.00;5041660;28;20224;-77
2023/12/17 11:05:23;;;;;;;15.90;14.40;;;;;;;2.45;87.74;94775.81;5037910;28;20230;-76
2023/12/17 11:07:48;;;;;;;16.83;15.33;;;;;;;2.43;87.65;94773.41;5061941;28;20225;-76
2023/12/17 11:10:17;;;;;;;17.97;16.23;;;;;;;2.87;85.51;94770.84;5067778;28;20193;-77
2023/12/17 11:12:45;;;;;;;17.33;15.83;;;;;;;2.58;85.50;94757.97;5046509;28;20260;-78